NCAR-RAP Real-Time Weather Data

Output produced by METARs form (17 January 2018  22:27 UTC)
found at http://weather.rap.ucar.edu/surface/
 
Conditions at: KMLB observed 17 January 2018  21:53 UTC
Temperature: 21.7°C (71°F)
Dewpoint: 7.8°C (46°F) [RH = 41%]
Pressure (altimeter): 30.16 inches Hg (1021.4 mb)
[Sea-level pressure: 1021.2 mb]
Winds: from the W (280 degrees) at 10 MPH (9 knots; 4.7 m/s)
Visibility: 10 or more miles (16+ km)
Ceiling: at least 12,000 feet AGL
Clouds: sky clear below 12,000 feet AGL
Present Weather: no significant weather observed at this time
KMLB 172153Z 28009KT 10SM CLR 22/08 A3016 RMK AO2 SLP212 T02170078

Conditions at: KMLB observed 17 January 2018  20:53 UTC
Temperature: 22.8°C (73°F)
Dewpoint: 6.1°C (43°F) [RH = 34%]
Pressure (altimeter): 30.15 inches Hg (1021.1 mb)
[Sea-level pressure: 1020.8 mb]
Winds: from the WNW (300 degrees) at 16 MPH (14 knots; 7.3 m/s)
Visibility: 10 or more miles (16+ km)
Ceiling: at least 12,000 feet AGL
Clouds: sky clear below 12,000 feet AGL
Present Weather: no significant weather observed at this time
KMLB 172053Z 30014KT 10SM CLR 23/06 A3015 RMK AO2 SLP208 T02280061 56017

Conditions at: KMLB observed 17 January 2018  19:53 UTC
Temperature: 23.3°C (74°F)
Dewpoint: 5.0°C (41°F) [RH = 30%]
Pressure (altimeter): 30.15 inches Hg (1021.1 mb)
[Sea-level pressure: 1020.8 mb]
Winds: from the WNW (300 degrees) at 12 MPH (10 knots; 5.2 m/s)
Visibility: 10 or more miles (16+ km)
Ceiling: at least 12,000 feet AGL
Clouds: sky clear below 12,000 feet AGL
Present Weather: no significant weather observed at this time
KMLB 171953Z 30010KT 10SM CLR 23/05 A3015 RMK AO2 SLP208 T02330050

Conditions at: KMLB observed 17 January 2018  18:53 UTC
Temperature: 23.9°C (75°F)
Dewpoint: 4.4°C (40°F) [RH = 28%]
Pressure (altimeter): 30.16 inches Hg (1021.4 mb)
[Sea-level pressure: 1021.3 mb]
Winds: from the W (260 degrees) at 12 MPH (10 knots; 5.2 m/s)
gusting to 17 MPH (15 knots; 7.8 m/s)
Visibility: 10 or more miles (16+ km)
Ceiling: at least 12,000 feet AGL
Clouds: sky clear below 12,000 feet AGL
Present Weather: no significant weather observed at this time
KMLB 171853Z 26010G15KT 10SM CLR 24/04 A3016 RMK AO2 SLP213 T02390044

Conditions at: KMLB observed 17 January 2018  17:53 UTC
Temperature: 22.8°C (73°F)
Dewpoint: 8.9°C (48°F) [RH = 41%]
Pressure (altimeter): 30.20 inches Hg (1022.8 mb)
[Sea-level pressure: 1022.4 mb]
Winds: from the WNW (300 degrees) at 12 MPH (10 knots; 5.2 m/s)
Visibility: 10 or more miles (16+ km)
Ceiling: at least 12,000 feet AGL
Clouds: sky clear below 12,000 feet AGL
Present Weather: no significant weather observed at this time
KMLB 171753Z 30010KT 10SM CLR 23/09 A3020 RMK AO2 SLP224 T02280089 10228 20094 58022

Conditions at: KMLB observed 17 January 2018  16:53 UTC
Temperature: 21.7°C (71°F)
Dewpoint: 10.0°C (50°F) [RH = 47%]
Pressure (altimeter): 30.22 inches Hg (1023.5 mb)
[Sea-level pressure: 1023.2 mb]
Winds: from the NW (310 degrees) at 8 MPH (7 knots; 3.6 m/s)
Visibility: 10 or more miles (16+ km)
Ceiling: at least 12,000 feet AGL
Clouds: sky clear below 12,000 feet AGL
Present Weather: no significant weather observed at this time
KMLB 171653Z 31007KT 10SM CLR 22/10 A3022 RMK AO2 SLP232 T02170100

Conditions at: KMLB observed 17 January 2018  15:53 UTC
Temperature: 20.6°C (69°F)
Dewpoint: 10.6°C (51°F) [RH = 53%]
Pressure (altimeter): 30.25 inches Hg (1024.5 mb)
[Sea-level pressure: 1024.2 mb]
Winds: from the NNW (330 degrees) at 6 MPH (5 knots; 2.6 m/s)
Visibility: 10 or more miles (16+ km)
Ceiling: at least 12,000 feet AGL
Clouds: sky clear below 12,000 feet AGL
Present Weather: no significant weather observed at this time
KMLB 171553Z 33005KT 10SM CLR 21/11 A3025 RMK AO2 SLP242 T02060106

Conditions at: KMLB observed 17 January 2018  14:53 UTC
Temperature: 17.8°C (64°F)
Dewpoint: 10.6°C (51°F) [RH = 63%]
Pressure (altimeter): 30.26 inches Hg (1024.8 mb)
[Sea-level pressure: 1024.6 mb]
Winds: from the NNW (340 degrees) at 7 MPH (6 knots; 3.1 m/s)
Visibility: 10 or more miles (16+ km)
Ceiling: at least 12,000 feet AGL
Clouds: sky clear below 12,000 feet AGL
Present Weather: no significant weather observed at this time
KMLB 171453Z 34006KT 10SM CLR 18/11 A3026 RMK AO2 SLP246 T01780106 51011

Conditions at: KMLB observed 17 January 2018  13:53 UTC
Temperature: 13.9°C (57°F)
Dewpoint: 11.7°C (53°F) [RH = 87%]
Pressure (altimeter): 30.25 inches Hg (1024.5 mb)
[Sea-level pressure: 1024.3 mb]
Winds: from the WNW (300 degrees) at 8 MPH (7 knots; 3.6 m/s)
Visibility: 10 or more miles (16+ km)
Ceiling: at least 12,000 feet AGL
Clouds: sky clear below 12,000 feet AGL
Present Weather: no significant weather observed at this time
KMLB 171353Z 30007KT 10SM CLR 14/12 A3025 RMK AO2 SLP243 T01390117

Conditions at: KMLB observed 17 January 2018  12:53 UTC
Temperature: 11.1°C (52°F)
Dewpoint: 10.0°C (50°F) [RH = 93%]
Pressure (altimeter): 30.24 inches Hg (1024.1 mb)
[Sea-level pressure: 1024.0 mb]
Winds: from the W (280 degrees) at 6 MPH (5 knots; 2.6 m/s)
Visibility: 10 or more miles (16+ km)
Ceiling: at least 12,000 feet AGL
Clouds: scattered clouds at 4800 feet AGL
Present Weather: no significant weather observed at this time
KMLB 171253Z 28005KT 10SM SCT048 11/10 A3024 RMK AO2 SLP240 T01110100

Conditions at: KMLB observed 17 January 2018  11:53 UTC
Temperature: 10.0°C (50°F)
Dewpoint: 9.4°C (49°F) [RH = 96%]
Pressure (altimeter): 30.23 inches Hg (1023.8 mb)
[Sea-level pressure: 1023.5 mb]
Winds: from the WNW (290 degrees) at 3 MPH (3 knots; 1.6 m/s)
Visibility: 8 miles (13 km)
Ceiling: at least 12,000 feet AGL
Clouds: few clouds at 4600 feet AGL
Present Weather: no significant weather observed at this time
KMLB 171153Z 29003KT 8SM FEW046 10/09 A3023 RMK AO2 SLP235 T01000094 10122 20094 53008

Conditions at: KMLB observed 17 January 2018  10:53 UTC
Temperature: 10.0°C (50°F)
Dewpoint: 9.4°C (49°F) [RH = 96%]
Pressure (altimeter): 30.21 inches Hg (1023.1 mb)
[Sea-level pressure: 1022.9 mb]
Winds: from the WNW (300 degrees) at 5 MPH (4 knots; 2.1 m/s)
Visibility: 7 miles (11 km)
Ceiling: at least 12,000 feet AGL
Clouds: sky clear below 12,000 feet AGL
Present Weather: no significant weather observed at this time
KMLB 171053Z 30004KT 7SM CLR 10/09 A3021 RMK AO2 SLP229 T01000094

Conditions at: KMLB observed 17 January 2018  09:53 UTC
Temperature: 10.0°C (50°F)
Dewpoint: 9.4°C (49°F) [RH = 96%]
Pressure (altimeter): 30.21 inches Hg (1023.1 mb)
[Sea-level pressure: 1023.0 mb]
Winds: from the WNW (290 degrees) at 6 MPH (5 knots; 2.6 m/s)
Visibility: 6 miles (10 km)
Ceiling: at least 12,000 feet AGL
Clouds: sky clear below 12,000 feet AGL
Present Weather: BR  (mist)
KMLB 170953Z AUTO 29005KT 6SM BR CLR 10/09 A3021 RMK AO2 SLP230 T01000094

Conditions at: KMLB observed 17 January 2018  08:53 UTC
Temperature: 10.6°C (51°F)
Dewpoint: 10.0°C (50°F) [RH = 96%]
Pressure (altimeter): 30.21 inches Hg (1023.1 mb)
[Sea-level pressure: 1022.7 mb]
Winds: from the WNW (300 degrees) at 5 MPH (4 knots; 2.1 m/s)
Visibility: 7 miles (11 km)
Ceiling: at least 12,000 feet AGL
Clouds: sky clear below 12,000 feet AGL
Present Weather: automated observation with no human augmentation;
there may or may not be significant weather present at this time
KMLB 170853Z AUTO 30004KT 7SM CLR 11/10 A3021 RMK AO2 SLP227 T01060100 56014

Conditions at: KMLB observed 17 January 2018  07:53 UTC
Temperature: 10.6°C (51°F)
Dewpoint: 10.0°C (50°F) [RH = 96%]
Pressure (altimeter): 30.21 inches Hg (1023.1 mb)
[Sea-level pressure: 1023.0 mb]
Winds: from the NW (310 degrees) at 3 MPH (3 knots; 1.6 m/s)
Visibility: 7 miles (11 km)
Ceiling: at least 12,000 feet AGL
Clouds: sky clear below 12,000 feet AGL
Present Weather: automated observation with no human augmentation;
there may or may not be significant weather present at this time
KMLB 170753Z AUTO 31003KT 7SM CLR 11/10 A3021 RMK AO2 SLP230 T01060100

Conditions at: KMLB observed 17 January 2018  06:53 UTC
Temperature: 10.6°C (51°F)
Dewpoint: 10.0°C (50°F) [RH = 96%]
Pressure (altimeter): 30.23 inches Hg (1023.8 mb)
[Sea-level pressure: 1023.6 mb]
Winds: from the NW (310 degrees) at 3 MPH (3 knots; 1.6 m/s)
Visibility: 7 miles (11 km)
Ceiling: at least 12,000 feet AGL
Clouds: sky clear below 12,000 feet AGL
Present Weather: automated observation with no human augmentation;
there may or may not be significant weather present at this time
KMLB 170653Z AUTO 31003KT 7SM CLR 11/10 A3023 RMK AO2 SLP236 T01060100

Conditions at: KMLB observed 17 January 2018  05:53 UTC
Temperature: 12.2°C (54°F)
Dewpoint: 11.1°C (52°F) [RH = 93%]
Pressure (altimeter): 30.25 inches Hg (1024.5 mb)
[Sea-level pressure: 1024.2 mb]
Winds: from the WNW (290 degrees) at 5 MPH (4 knots; 2.1 m/s)
Visibility: 9 miles (14 km)
Ceiling: at least 12,000 feet AGL
Clouds: sky clear below 12,000 feet AGL
Present Weather: automated observation with no human augmentation;
there may or may not be significant weather present at this time
KMLB 170553Z AUTO 29004KT 9SM CLR 12/11 A3025 RMK AO2 SLP242 T01220111 10156 20111 56015

Conditions at: KMLB observed 17 January 2018  04:53 UTC
Temperature: 11.7°C (53°F)
Dewpoint: 11.1°C (52°F) [RH = 96%]
Pressure (altimeter): 30.26 inches Hg (1024.8 mb)
[Sea-level pressure: 1024.4 mb]
Winds: calm
Visibility: 7 miles (11 km)
Ceiling: at least 12,000 feet AGL
Clouds: sky clear below 12,000 feet AGL
Present Weather: no significant weather observed at this time
KMLB 170453Z 00000KT 7SM CLR 12/11 A3026 RMK AO2 SLP244 T01170111 402280089

Conditions at: KMLB observed 17 January 2018  03:53 UTC
Temperature: 12.2°C (54°F)
Dewpoint: 11.1°C (52°F) [RH = 93%]
Pressure (altimeter): 30.28 inches Hg (1025.5 mb)
[Sea-level pressure: 1025.3 mb]
Winds: from the NW (320 degrees) at 3 MPH (3 knots; 1.6 m/s)
Visibility: 10 or more miles (16+ km)
Ceiling: at least 12,000 feet AGL
Clouds: sky clear below 12,000 feet AGL
Present Weather: no significant weather observed at this time
KMLB 170353Z 32003KT 10SM CLR 12/11 A3028 RMK AO2 SLP253 T01220111

Conditions at: KMLB observed 17 January 2018  02:53 UTC
Temperature: 13.9°C (57°F)
Dewpoint: 12.2°C (54°F) [RH = 89%]
Pressure (altimeter): 30.29 inches Hg (1025.8 mb)
[Sea-level pressure: 1025.7 mb]
Winds: from the NNW (330 degrees) at 6 MPH (5 knots; 2.6 m/s)
Visibility: 10 or more miles (16+ km)
Ceiling: at least 12,000 feet AGL
Clouds: sky clear below 12,000 feet AGL
Present Weather: no significant weather observed at this time
KMLB 170253Z 33005KT 10SM CLR 14/12 A3029 RMK AO2 SLP257 T01390122 51008

Conditions at: KMLB observed 17 January 2018  01:53 UTC
Temperature: 15.0°C (59°F)
Dewpoint: 12.8°C (55°F) [RH = 87%]
Pressure (altimeter): 30.29 inches Hg (1025.8 mb)
[Sea-level pressure: 1025.6 mb]
Winds: from the N (350 degrees) at 7 MPH (6 knots; 3.1 m/s)
Visibility: 10 or more miles (16+ km)
Ceiling: at least 12,000 feet AGL
Clouds: sky clear below 12,000 feet AGL
Present Weather: no significant weather observed at this time
KMLB 170153Z 35006KT 10SM CLR 15/13 A3029 RMK AO2 SLP256 T01500128

Conditions at: KMLB observed 17 January 2018  00:53 UTC
Temperature: 15.6°C (60°F)
Dewpoint: 12.8°C (55°F) [RH = 83%]
Pressure (altimeter): 30.28 inches Hg (1025.5 mb)
[Sea-level pressure: 1025.4 mb]
Winds: from the N (350 degrees) at 12 MPH (10 knots; 5.2 m/s)
Visibility: 10 or more miles (16+ km)
Ceiling: at least 12,000 feet AGL
Clouds: sky clear below 12,000 feet AGL
Present Weather: no significant weather observed at this time
KMLB 170053Z 35010KT 10SM CLR 16/13 A3028 RMK AO2 SLP254 T01560128

Conditions at: KMLB observed 16 January 2018  23:53 UTC
Temperature: 15.6°C (60°F)
Dewpoint: 12.8°C (55°F) [RH = 83%]
Pressure (altimeter): 30.27 inches Hg (1025.1 mb)
[Sea-level pressure: 1024.9 mb]
Winds: from the N (360 degrees) at 13 MPH (11 knots; 5.7 m/s)
Visibility: 10 or more miles (16+ km)
Ceiling: at least 12,000 feet AGL
Clouds: sky clear below 12,000 feet AGL
Present Weather: no significant weather observed at this time
KMLB 162353Z 36011KT 10SM CLR 16/13 A3027 RMK AO2 SLP249 T01560128 10228 20156 50000

Conditions at: KMLB observed 16 January 2018  22:53 UTC
Temperature: 16.7°C (62°F)
Dewpoint: 12.2°C (54°F) [RH = 75%]
Pressure (altimeter): 30.27 inches Hg (1025.1 mb)
[Sea-level pressure: 1025.0 mb]
Winds: from the N (360 degrees) at 13 MPH (11 knots; 5.7 m/s)
Visibility: 10 or more miles (16+ km)
Ceiling: at least 12,000 feet AGL
Clouds: sky clear below 12,000 feet AGL
Present Weather: no significant weather observed at this time
KMLB 162253Z 36011KT 10SM CLR 17/12 A3027 RMK AO2 SLP250 T01670122

Conditions at: KMLB observed 16 January 2018  21:53 UTC
Temperature: 19.4°C (67°F)
Dewpoint: 12.2°C (54°F) [RH = 63%]
Pressure (altimeter): 30.27 inches Hg (1025.1 mb)
[Sea-level pressure: 1024.9 mb]
Winds: from the N (10 degrees) at 9 MPH (8 knots; 4.2 m/s)
Visibility: 10 or more miles (16+ km)
Ceiling: at least 12,000 feet AGL
Clouds: sky clear below 12,000 feet AGL
Present Weather: no significant weather observed at this time
KMLB 162153Z 01008KT 10SM CLR 19/12 A3027 RMK AO2 SLP249 T01940122

Conditions at: KMLB observed 16 January 2018  20:53 UTC
Temperature: 21.7°C (71°F)
Dewpoint: 10.6°C (51°F) [RH = 49%]
Pressure (altimeter): 30.27 inches Hg (1025.1 mb)
[Sea-level pressure: 1024.9 mb]
Winds: from the NNE (20 degrees) at 10 MPH (9 knots; 4.7 m/s)
Visibility: 10 or more miles (16+ km)
Ceiling: at least 12,000 feet AGL
Clouds: sky clear below 12,000 feet AGL
Present Weather: no significant weather observed at this time
KMLB 162053Z 02009KT 10SM CLR 22/11 A3027 RMK AO2 SLP249 T02170106 56016

Conditions at: KMLB observed 16 January 2018  19:53 UTC
Temperature: 22.2°C (72°F)
Dewpoint: 10.0°C (50°F) [RH = 46%]
Pressure (altimeter): 30.27 inches Hg (1025.1 mb)
[Sea-level pressure: 1025.0 mb]
Winds: from the NNE (20 degrees) at 12 MPH (10 knots; 5.2 m/s)
Visibility: 10 or more miles (16+ km)
Ceiling: at least 12,000 feet AGL
Clouds: few clouds at 4000 feet AGL
Present Weather: no significant weather observed at this time
KMLB 161953Z 02010KT 10SM FEW040 22/10 A3027 RMK AO2 SLP250 T02220100

Conditions at: KMLB observed 16 January 2018  18:53 UTC
Temperature: 22.2°C (72°F)
Dewpoint: 10.0°C (50°F) [RH = 46%]
Pressure (altimeter): 30.28 inches Hg (1025.5 mb)
[Sea-level pressure: 1025.4 mb]
Winds: from the NE (40 degrees) at 10 MPH (9 knots; 4.7 m/s)
Visibility: 10 or more miles (16+ km)
Ceiling: at least 12,000 feet AGL
Clouds: scattered clouds at 4000 feet AGL
Present Weather: no significant weather observed at this time
KMLB 161853Z 04009KT 10SM SCT040 22/10 A3028 RMK AO2 SLP254 T02220100

Conditions at: KMLB observed 16 January 2018  17:53 UTC
Temperature: 22.2°C (72°F)
Dewpoint: 10.6°C (51°F) [RH = 48%]
Pressure (altimeter): 30.31 inches Hg (1026.5 mb)
[Sea-level pressure: 1026.4 mb]
Winds: from the NNE (20 degrees) at 12 MPH (10 knots; 5.2 m/s)
Visibility: 10 or more miles (16+ km)
Ceiling: at least 12,000 feet AGL
Clouds: sky clear below 12,000 feet AGL
Present Weather: no significant weather observed at this time
KMLB 161753Z 02010KT 10SM CLR 22/11 A3031 RMK AO2 SLP264 T02220106 10222 20094 58015

Conditions at: KMLB observed 16 January 2018  16:53 UTC
Temperature: 21.7°C (71°F)
Dewpoint: 11.7°C (53°F) [RH = 53%]
Pressure (altimeter): 30.34 inches Hg (1027.5 mb)
[Sea-level pressure: 1027.2 mb]
Winds: from the N (10 degrees) at 10 MPH (9 knots; 4.7 m/s)
Visibility: 10 or more miles (16+ km)
Ceiling: at least 12,000 feet AGL
Clouds: few clouds at 2500 feet AGL
Present Weather: no significant weather observed at this time
KMLB 161653Z 01009KT 10SM FEW025 22/12 A3034 RMK AO2 SLP272 T02170117

Conditions at: KMLB observed 16 January 2018  15:53 UTC
Temperature: 20.6°C (69°F)
Dewpoint: 11.7°C (53°F) [RH = 57%]
Pressure (altimeter): 30.36 inches Hg (1028.2 mb)
[Sea-level pressure: 1028.1 mb]
Winds: from the N (10 degrees) at 10 MPH (9 knots; 4.7 m/s)
Visibility: 10 or more miles (16+ km)
Ceiling: at least 12,000 feet AGL
Clouds: few clouds at 4200 feet AGL
Present Weather: no significant weather observed at this time
KMLB 161553Z 01009KT 10SM FEW042 21/12 A3036 RMK AO2 SLP281 T02060117

Conditions at: KMLB observed 16 January 2018  14:53 UTC
Temperature: 19.4°C (67°F)
Dewpoint: 12.8°C (55°F) [RH = 66%]
Pressure (altimeter): 30.36 inches Hg (1028.2 mb)
[Sea-level pressure: 1027.9 mb]
Winds: from the N (10 degrees) at 9 MPH (8 knots; 4.2 m/s)
Visibility: 10 or more miles (16+ km)
Ceiling: at least 12,000 feet AGL
Clouds: few clouds at 4300 feet AGL
Present Weather: no significant weather observed at this time
KMLB 161453Z 01008KT 10SM FEW043 19/13 A3036 RMK AO2 SLP279 T01940128 51009

Conditions at: KMLB observed 16 January 2018  13:53 UTC
Temperature: 15.6°C (60°F)
Dewpoint: 12.8°C (55°F) [RH = 83%]
Pressure (altimeter): 30.35 inches Hg (1027.9 mb)
[Sea-level pressure: 1027.6 mb]
Winds: from the N (360 degrees) at 6 MPH (5 knots; 2.6 m/s)
Visibility: 10 or more miles (16+ km)
Ceiling: at least 12,000 feet AGL
Clouds: sky clear below 12,000 feet AGL
Present Weather: no significant weather observed at this time
KMLB 161353Z 36005KT 10SM CLR 16/13 A3035 RMK AO2 SLP276 T01560128

Conditions at: KMLB observed 16 January 2018  12:53 UTC
Temperature: 10.6°C (51°F)
Dewpoint: 10.0°C (50°F) [RH = 96%]
Pressure (altimeter): 30.34 inches Hg (1027.5 mb)
[Sea-level pressure: 1027.3 mb]
Winds: from the WNW (300 degrees) at 3 MPH (3 knots; 1.6 m/s)
Visibility: 10 or more miles (16+ km)
Ceiling: at least 12,000 feet AGL
Clouds: few clouds at 4100 feet AGL
Present Weather: no significant weather observed at this time
KMLB 161253Z 30003KT 10SM FEW041 11/10 A3034 RMK AO2 SLP273 T01060100

Conditions at: KMLB observed 16 January 2018  11:53 UTC
Temperature: 9.4°C (49°F)
Dewpoint: 8.3°C (47°F) [RH = 93%]
Pressure (altimeter): 30.33 inches Hg (1027.2 mb)
[Sea-level pressure: 1027.0 mb]
Winds: from the NW (310 degrees) at 6 MPH (5 knots; 2.6 m/s)
Visibility: 10 or more miles (16+ km)
Ceiling: at least 12,000 feet AGL
Clouds: sky clear below 12,000 feet AGL
Present Weather: no significant weather observed at this time
KMLB 161153Z 31005KT 10SM CLR 09/08 A3033 RMK AO2 SLP270 T00940083 10144 20089 53010

Conditions at: KMLB observed 16 January 2018  10:53 UTC
Temperature: 9.4°C (49°F)
Dewpoint: 8.3°C (47°F) [RH = 93%]
Pressure (altimeter): 30.31 inches Hg (1026.5 mb)
[Sea-level pressure: 1026.4 mb]
Winds: from the WNW (300 degrees) at 6 MPH (5 knots; 2.6 m/s)
Visibility: 10 or more miles (16+ km)
Ceiling: at least 12,000 feet AGL
Clouds: sky clear below 12,000 feet AGL
Present Weather: no significant weather observed at this time
KMLB 161053Z 30005KT 10SM CLR 09/08 A3031 RMK AO2 SLP264 T00940083

Conditions at: KMLB observed 16 January 2018  09:53 UTC
Temperature: 10.0°C (50°F)
Dewpoint: 8.9°C (48°F) [RH = 93%]
Pressure (altimeter): 30.31 inches Hg (1026.5 mb)
[Sea-level pressure: 1026.2 mb]
Winds: from the WNW (290 degrees) at 5 MPH (4 knots; 2.1 m/s)
Visibility: 10 or more miles (16+ km)
Ceiling: at least 12,000 feet AGL
Clouds: sky clear below 12,000 feet AGL
Present Weather: automated observation with no human augmentation;
there may or may not be significant weather present at this time
KMLB 160953Z AUTO 29004KT 10SM CLR 10/09 A3031 RMK AO2 SLP262 T01000089

Conditions at: KMLB observed 16 January 2018  08:53 UTC
Temperature: 10.0°C (50°F)
Dewpoint: 8.9°C (48°F) [RH = 93%]
Pressure (altimeter): 30.30 inches Hg (1026.2 mb)
[Sea-level pressure: 1026.0 mb]
Winds: from the WNW (290 degrees) at 6 MPH (5 knots; 2.6 m/s)
Visibility: 9 miles (14 km)
Ceiling: at least 12,000 feet AGL
Clouds: sky clear below 12,000 feet AGL
Present Weather: automated observation with no human augmentation;
there may or may not be significant weather present at this time
KMLB 160853Z AUTO 29005KT 9SM CLR 10/09 A3030 RMK AO2 SLP260 T01000089 55004

Conditions at: KMLB observed 16 January 2018  07:53 UTC
Temperature: 10.0°C (50°F)
Dewpoint: 8.9°C (48°F) [RH = 93%]
Pressure (altimeter): 30.29 inches Hg (1025.8 mb)
[Sea-level pressure: 1025.7 mb]
Winds: from the WNW (290 degrees) at 6 MPH (5 knots; 2.6 m/s)
Visibility: 10 or more miles (16+ km)
Ceiling: at least 12,000 feet AGL
Clouds: sky clear below 12,000 feet AGL
Present Weather: automated observation with no human augmentation;
there may or may not be significant weather present at this time
KMLB 160753Z AUTO 29005KT 10SM CLR 10/09 A3029 RMK AO2 SLP257 T01000089

Conditions at: KMLB observed 16 January 2018  06:53 UTC
Temperature: 12.2°C (54°F)
Dewpoint: 11.1°C (52°F) [RH = 93%]
Pressure (altimeter): 30.31 inches Hg (1026.5 mb)
[Sea-level pressure: 1026.1 mb]
Winds: from the WNW (300 degrees) at 5 MPH (4 knots; 2.1 m/s)
Visibility: 10 or more miles (16+ km)
Ceiling: 4200 feet AGL
Clouds: broken clouds at 4200 feet AGL
Present Weather: automated observation with no human augmentation;
there may or may not be significant weather present at this time
KMLB 160653Z AUTO 30004KT 10SM BKN042 12/11 A3031 RMK AO2 SLP261 T01220111

Conditions at: KMLB observed 16 January 2018  05:53 UTC
Temperature: 13.9°C (57°F)
Dewpoint: 11.7°C (53°F) [RH = 87%]
Pressure (altimeter): 30.31 inches Hg (1026.5 mb)
[Sea-level pressure: 1026.4 mb]
Winds: from the N (360 degrees) at 10 MPH (9 knots; 4.7 m/s)
Visibility: 10 or more miles (16+ km)
Ceiling: at least 12,000 feet AGL
Clouds: sky clear below 12,000 feet AGL
Present Weather: automated observation with no human augmentation;
there may or may not be significant weather present at this time
KMLB 160553Z AUTO 36009KT 10SM CLR 14/12 A3031 RMK AO2 SLP264 T01390117 10144 20128 56009

Conditions at: KMLB observed 16 January 2018  04:53 UTC
Temperature: 13.3°C (56°F)
Dewpoint: 11.1°C (52°F) [RH = 87%]
Pressure (altimeter): 30.32 inches Hg (1026.8 mb)
[Sea-level pressure: 1026.6 mb]
Winds: from the N (360 degrees) at 9 MPH (8 knots; 4.2 m/s)
Visibility: 10 or more miles (16+ km)
Ceiling: at least 12,000 feet AGL
Clouds: few clouds at 3900 feet AGL
Present Weather: automated observation with no human augmentation;
there may or may not be significant weather present at this time
KMLB 160453Z AUTO 36008KT 10SM FEW039 13/11 A3032 RMK AO2 SLP266 T01330111 402060100

Conditions at: KMLB observed 16 January 2018  03:53 UTC
Temperature: 12.8°C (55°F)
Dewpoint: 10.6°C (51°F) [RH = 86%]
Pressure (altimeter): 30.33 inches Hg (1027.2 mb)
[Sea-level pressure: 1027.1 mb]
Winds: from the N (350 degrees) at 12 MPH (10 knots; 5.2 m/s)
Visibility: 10 or more miles (16+ km)
Ceiling: at least 12,000 feet AGL
Clouds: sky clear below 12,000 feet AGL
Present Weather: no significant weather observed at this time
KMLB 160353Z 35010KT 10SM CLR 13/11 A3033 RMK AO2 SLP271 T01280106

Conditions at: KMLB observed 16 January 2018  02:53 UTC
Temperature: 13.3°C (56°F)
Dewpoint: 10.0°C (50°F) [RH = 80%]
Pressure (altimeter): 30.34 inches Hg (1027.5 mb)
[Sea-level pressure: 1027.3 mb]
Winds: from the N (350 degrees) at 13 MPH (11 knots; 5.7 m/s)
Visibility: 10 or more miles (16+ km)
Ceiling: at least 12,000 feet AGL
Clouds: sky clear below 12,000 feet AGL
Present Weather: no significant weather observed at this time
KMLB 160253Z 35011KT 10SM CLR 13/10 A3034 RMK AO2 SLP273 T01330100 51011

Conditions at: KMLB observed 16 January 2018  01:53 UTC
Temperature: 13.9°C (57°F)
Dewpoint: 9.4°C (49°F) [RH = 74%]
Pressure (altimeter): 30.34 inches Hg (1027.5 mb)
[Sea-level pressure: 1027.1 mb]
Winds: from the N (350 degrees) at 15 MPH (13 knots; 6.8 m/s)
Visibility: 10 or more miles (16+ km)
Ceiling: at least 12,000 feet AGL
Clouds: sky clear below 12,000 feet AGL
Present Weather: no significant weather observed at this time
KMLB 160153Z 35013KT 10SM CLR 14/09 A3034 RMK AO2 SLP271 T01390094

Conditions at: KMLB observed 16 January 2018  00:53 UTC
Temperature: 13.9°C (57°F)
Dewpoint: 9.4°C (49°F) [RH = 74%]
Pressure (altimeter): 30.33 inches Hg (1027.2 mb)
[Sea-level pressure: 1026.9 mb]
Winds: from the N (350 degrees) at 17 MPH (15 knots; 7.8 m/s)
Visibility: 10 or more miles (16+ km)
Ceiling: at least 12,000 feet AGL
Clouds: few clouds at 7000 feet AGL
Present Weather: no significant weather observed at this time
KMLB 160053Z 35015KT 10SM FEW070 14/09 A3033 RMK AO2 SLP269 T01390094

Conditions at: KMLB observed 15 January 2018  23:53 UTC
Temperature: 14.4°C (58°F)
Dewpoint: 8.3°C (47°F) [RH = 67%]
Pressure (altimeter): 30.31 inches Hg (1026.5 mb)
[Sea-level pressure: 1026.3 mb]
Winds: from the N (350 degrees) at 18 MPH (16 knots; 8.3 m/s)
gusting to 24 MPH (21 knots; 10.9 m/s)
Visibility: 10 or more miles (16+ km)
Ceiling: 7000 feet AGL
Clouds: broken clouds at 7000 feet AGL
Present Weather: no significant weather observed at this time
KMLB 152353Z 35016G21KT 10SM BKN070 14/08 A3031 RMK AO2 SLP263 T01440083 10194 20144 53011

Conditions at: KMLB observed 15 January 2018  22:53 UTC
Temperature: 15.6°C (60°F)
Dewpoint: 9.4°C (49°F) [RH = 67%]
Pressure (altimeter): 30.30 inches Hg (1026.2 mb)
[Sea-level pressure: 1025.9 mb]
Winds: from the N (350 degrees) at 21 MPH (18 knots; 9.4 m/s)
gusting to 28 MPH (24 knots; 12.5 m/s)
Visibility: 10 or more miles (16+ km)
Ceiling: 7000 feet AGL
Clouds: broken clouds at 7000 feet AGL
Present Weather: no significant weather observed at this time
KMLB 152253Z 35018G24KT 10SM BKN070 16/09 A3030 RMK AO2 SLP259 T01560094